Time;durP1;ratioP1;P1;durP2;ratioP2;P2;SDS_P1;SDS_P2;PMS_P1;PMS_P2;Temp;Humidity;BMP_temperature;BMP_pressure;BME280_temperature;BME280_humidity;BME280_pressure;Samples;Min_cycle;Max_cycle;Signal;HPM_P1;HPM_P2
2023/01/12 00:03:09;;;;;;;53.47;26.23;;;4.60;99.90;;;;;;10462542;28;20040;-80
2023/01/12 00:08:09;;;;;;;61.03;27.60;;;4.60;99.90;;;;;;10481936;28;20051;-78
2023/01/12 00:13:10;;;;;;;64.47;29.20;;;4.60;99.90;;;;;;10481658;28;20036;-79
2023/01/12 00:18:10;;;;;;;67.80;32.50;;;4.60;99.90;;;;;;10480478;28;20051;-80
2023/01/12 00:23:11;;;;;;;77.80;30.33;;;4.60;99.90;;;;;;10482108;28;20039;-81
2023/01/12 00:28:11;;;;;;;81.53;34.13;;;4.60;99.90;;;;;;10484377;28;20028;-80
2023/01/12 00:33:13;;;;;;;66.67;29.23;;;4.60;99.90;;;;;;10488046;28;20085;-80
2023/01/12 00:38:13;;;;;;;75.47;30.83;;;4.70;99.90;;;;;;10488355;28;20044;-80
2023/01/12 00:48:33;;;;;;;55.60;25.57;;;4.70;99.90;;;;;;10486879;28;20045;-79
2023/01/12 00:53:34;;;;;;;62.40;26.70;;;4.70;99.90;;;;;;10486749;28;20032;-78
2023/01/12 00:58:34;;;;;;;61.13;26.83;;;4.60;99.90;;;;;;10486687;28;20044;-80
2023/01/12 01:03:35;;;;;;;62.27;25.53;;;4.70;99.90;;;;;;10487019;28;20051;-79
2023/01/12 01:08:36;;;;;;;60.30;24.93;;;4.70;99.90;;;;;;10486347;28;20395;-78
2023/01/12 01:13:44;;;;;;;58.60;22.63;;;4.70;99.90;;;;;;10486526;28;20036;-79
2023/01/12 01:18:45;;;;;;;49.10;20.50;;;4.70;99.90;;;;;;10475963;28;20040;-80
2023/01/12 01:23:45;;;;;;;59.80;22.17;;;4.70;99.90;;;;;;10487129;28;20024;-80
2023/01/12 01:28:47;;;;;;;57.07;21.73;;;4.70;99.90;;;;;;10484427;28;20035;-81
2023/01/12 01:33:48;;;;;;;61.53;24.77;;;4.70;99.90;;;;;;10485921;28;20032;-79
2023/01/12 01:38:50;;;;;;;62.10;23.53;;;4.70;99.90;;;;;;10483799;28;20048;-80
2023/01/12 01:44:03;;;;;;;83.43;31.33;;;4.70;99.90;;;;;;10484219;28;20097;-80
2023/01/12 01:49:14;;;;;;;78.67;27.03;;;4.70;99.90;;;;;;10484754;28;20032;-81
2023/01/12 01:54:14;;;;;;;65.80;24.70;;;4.80;99.90;;;;;;10486793;28;20028;-79
2023/01/12 01:59:21;;;;;;;60.20;21.77;;;4.80;99.90;;;;;;10486066;28;20048;-79
2023/01/12 02:04:23;;;;;;;62.07;20.67;;;4.70;99.90;;;;;;10485622;28;20040;-80
2023/01/12 02:09:25;;;;;;;83.83;26.90;;;4.80;99.90;;;;;;10485504;28;20119;-80
2023/01/12 02:20:21;;;;;;;88.60;29.33;;;4.80;99.90;;;;;;10484917;28;20063;-80
2023/01/12 02:25:34;;;;;;;97.50;31.27;;;4.80;99.90;;;;;;10478461;22;20513;-81
2023/01/12 02:31:11;;;;;;;94.27;31.57;;;4.80;99.90;;;;;;10442910;28;20061;-80
2023/01/12 02:36:24;;;;;;;79.77;23.87;;;4.80;99.90;;;;;;10443109;28;20028;-81
2023/01/12 02:47:14;;;;;;;0.10;0.10;;;4.80;99.90;;;;;;10442593;28;20072;-79
2023/01/12 02:52:19;;;;;;;0.67;0.67;;;4.80;99.90;;;;;;10441573;28;20032;-79
2023/01/12 02:57:23;;;;;;;0.03;0.03;;;4.80;99.90;;;;;;10440312;28;20036;-81
2023/01/12 03:02:25;;;;;;;0.00;0.00;;;4.80;99.90;;;;;;10441500;28;20033;-81
2023/01/12 03:07:44;;;;;;;0.00;0.00;;;4.80;99.90;;;;;;10445963;28;20033;-81
2023/01/12 03:12:45;;;;;;;0.00;0.00;;;4.90;99.90;;;;;;10440994;28;20025;-80
2023/01/12 03:17:58;;;;;;;0.60;0.60;;;4.80;99.90;;;;;;10430410;28;20033;-81
2023/01/12 03:23:07;;;;;;;0.20;0.20;;;4.90;99.90;;;;;;10440756;28;20041;-79
2023/01/12 03:28:12;;;;;;;0.00;0.00;;;4.90;99.90;;;;;;10440875;28;20037;-80
2023/01/12 03:33:12;;;;;;;0.40;0.40;;;4.90;99.90;;;;;;10441099;28;20028;-79
2023/01/12 03:38:29;;;;;;;0.00;0.00;;;4.90;99.90;;;;;;10441009;28;20107;-80
2023/01/12 03:43:51;;;;;;;0.00;0.00;;;4.90;99.90;;;;;;10434611;28;20028;-82
2023/01/12 03:49:31;;;;;;;0.00;0.00;;;4.90;99.90;;;;;;10439063;28;20021;-79
2023/01/12 03:54:35;;;;;;;0.23;0.23;;;5.00;99.90;;;;;;10393870;28;20048;-79
2023/01/12 03:59:36;;;;;;;0.00;0.00;;;5.00;99.90;;;;;;10440219;28;20064;-81
2023/01/12 04:04:36;;;;;;;0.20;0.20;;;5.00;99.90;;;;;;10447670;28;20131;-82
2023/01/12 04:09:37;;;;;;;0.00;0.00;;;5.00;99.90;;;;;;10448302;28;20017;-78
2023/01/12 04:14:39;;;;;;;8.30;1.70;;;5.00;99.90;;;;;;10447406;28;20108;-80
2023/01/12 04:19:40;;;;;;;0.30;0.30;;;5.00;99.90;;;;;;10433048;28;20077;-78
2023/01/12 04:24:41;;;;;;;0.43;0.43;;;5.10;99.90;;;;;;10431242;28;20053;-78
2023/01/12 04:29:43;;;;;;;0.20;0.20;;;5.10;99.90;;;;;;10426135;28;20036;-78
2023/01/12 04:34:44;;;;;;;0.00;0.00;;;5.10;99.90;;;;;;10440001;28;20034;-78
2023/01/12 04:39:45;;;;;;;0.13;0.13;;;5.10;99.90;;;;;;10423828;28;20033;-78
2023/01/12 04:44:46;;;;;;;0.53;0.53;;;5.10;99.90;;;;;;10432259;28;20033;-78
2023/01/12 04:49:46;;;;;;;0.00;0.00;;;5.10;99.90;;;;;;10433107;28;20036;-78
2023/01/12 04:54:47;;;;;;;0.00;0.00;;;5.00;99.90;;;;;;10438445;28;20179;-78
2023/01/12 04:59:47;;;;;;;0.00;0.00;;;5.00;99.90;;;;;;10444182;28;20045;-80
2023/01/12 05:04:49;;;;;;;0.17;0.17;;;5.00;99.90;;;;;;10444634;28;20028;-80
2023/01/12 05:15:09;;;;;;;0.10;0.10;;;4.90;99.90;;;;;;10430388;28;20044;-78
2023/01/12 05:20:10;;;;;;;1.43;1.33;;;4.90;99.90;;;;;;10444956;28;20459;-80
2023/01/12 05:25:10;;;;;;;0.20;0.20;;;4.80;99.90;;;;;;10442776;28;20107;-80
2023/01/12 05:30:11;;;;;;;0.10;0.10;;;4.80;99.90;;;;;;10441488;28;20104;-80
2023/01/12 05:35:12;;;;;;;11.90;3.93;;;4.80;99.90;;;;;;10436760;28;20463;-79
2023/01/12 05:40:14;;;;;;;2.73;1.90;;;4.70;99.90;;;;;;10438896;28;20047;-80
2023/01/12 05:45:14;;;;;;;0.50;0.50;;;4.70;99.90;;;;;;10445055;28;20504;-79
2023/01/12 05:50:15;;;;;;;0.10;0.10;;;4.60;99.90;;;;;;10444955;28;20171;-79
2023/01/12 05:55:15;;;;;;;0.10;0.10;;;4.60;99.90;;;;;;10444838;28;20098;-79
2023/01/12 06:00:17;;;;;;;0.10;0.10;;;4.60;99.90;;;;;;10444924;28;20033;-79
2023/01/12 06:05:17;;;;;;;0.00;0.00;;;4.50;99.90;;;;;;10444351;28;20028;-79
2023/01/12 06:10:18;;;;;;;0.10;0.10;;;4.50;99.90;;;;;;10443652;28;20033;-79
2023/01/12 06:15:19;;;;;;;2.70;2.47;;;4.50;99.90;;;;;;10443679;28;20037;-79
2023/01/12 06:20:19;;;;;;;1.40;1.33;;;4.50;99.90;;;;;;10444582;28;20047;-80
2023/01/12 06:25:20;;;;;;;0.50;0.50;;;4.50;99.90;;;;;;10443097;28;20057;-79
2023/01/12 06:30:21;;;;;;;0.40;0.40;;;4.50;99.90;;;;;;10443317;28;20025;-80
2023/01/12 06:35:21;;;;;;;2.60;2.40;;;4.40;99.90;;;;;;10442346;28;20100;-79
2023/01/12 06:40:22;;;;;;;4.30;3.10;;;4.40;99.90;;;;;;10443380;28;20033;-80
2023/01/12 06:45:22;;;;;;;4.80;4.40;;;4.40;99.90;;;;;;10442704;28;20668;-80
2023/01/12 06:50:23;;;;;;;2.00;1.80;;;4.30;99.90;;;;;;10443592;28;20040;-80
2023/01/12 06:55:24;;;;;;;0.00;0.00;;;4.20;99.90;;;;;;10442777;28;20581;-80
2023/01/12 07:00:24;;;;;;;0.00;0.00;;;4.20;99.90;;;;;;10442140;28;20435;-79
2023/01/12 07:05:25;;;;;;;0.67;0.63;;;4.20;99.90;;;;;;10442125;28;20032;-80
2023/01/12 07:10:26;;;;;;;2.67;1.13;;;4.20;99.90;;;;;;10442746;28;20040;-80
2023/01/12 07:15:27;;;;;;;0.00;0.00;;;4.00;99.90;;;;;;10441666;28;20024;-80
2023/01/12 07:20:28;;;;;;;0.00;0.00;;;4.10;99.90;;;;;;10442044;28;20029;-79
2023/01/12 07:25:29;;;;;;;0.00;0.00;;;4.10;99.90;;;;;;10442231;28;20417;-78
2023/01/12 07:30:29;;;;;;;1.60;1.30;;;4.10;99.90;;;;;;10441828;28;20013;-78
2023/01/12 07:35:30;;;;;;;0.00;0.00;;;4.20;99.90;;;;;;10442569;28;20033;-78
2023/01/12 07:40:31;;;;;;;0.00;0.00;;;4.20;99.90;;;;;;10450069;28;20120;-80
2023/01/12 07:45:32;;;;;;;0.00;0.00;;;4.20;99.90;;;;;;10450762;28;20112;-78
2023/01/12 07:50:32;;;;;;;0.00;0.00;;;4.30;99.90;;;;;;10449555;28;20021;-78
2023/01/12 07:55:33;;;;;;;0.67;0.40;;;4.30;99.90;;;;;;10450142;28;20108;-79
2023/01/12 08:00:34;;;;;;;0.00;0.00;;;4.30;99.90;;;;;;10448819;28;20037;-78
2023/01/12 08:05:36;;;;;;;4.93;2.20;;;4.30;99.90;;;;;;10449048;28;20056;-79
2023/01/12 08:10:36;;;;;;;0.60;0.60;;;4.20;99.90;;;;;;10448884;28;20400;-79
2023/01/12 08:15:45;;;;;;;1.23;1.23;;;4.40;99.90;;;;;;10449195;28;20021;-78
2023/01/12 08:20:46;;;;;;;1.17;1.17;;;4.40;99.90;;;;;;10448823;28;20127;-78
2023/01/12 08:25:55;;;;;;;8.13;4.93;;;4.50;99.90;;;;;;10447960;28;20056;-77
2023/01/12 08:30:55;;;;;;;0.87;0.87;;;4.70;99.90;;;;;;10447897;28;20596;-79
2023/01/12 08:35:56;;;;;;;2.80;2.67;;;5.00;99.90;;;;;;10448323;28;20032;-79
2023/01/12 08:46:16;;;;;;;2.57;2.37;;;5.40;99.90;;;;;;10447646;28;20041;-78
2023/01/12 08:51:16;;;;;;;11.87;6.77;;;5.60;99.90;;;;;;10448091;28;20690;-79
2023/01/12 08:56:17;;;;;;;5.77;5.17;;;5.80;99.90;;;;;;10447494;28;20427;-79
2023/01/12 09:01:18;;;;;;;2.53;1.60;;;6.00;99.90;;;;;;10447147;28;20029;-78
2023/01/12 09:06:31;;;;;;;9.33;7.60;;;6.10;99.90;;;;;;10447426;28;20032;-79
2023/01/12 09:11:31;;;;;;;2.83;2.63;;;6.10;99.90;;;;;;10446607;28;20036;-78
2023/01/12 09:16:33;;;;;;;1.03;0.93;;;6.30;99.90;;;;;;10446517;28;20384;-78
2023/01/12 09:21:37;;;;;;;1.73;1.67;;;6.40;99.90;;;;;;10446275;28;20392;-78
2023/01/12 09:26:41;;;;;;;2.63;1.60;;;6.40;99.90;;;;;;10446389;28;20574;-79
2023/01/12 09:31:43;;;;;;;1.07;1.07;;;6.50;99.90;;;;;;10446401;28;20060;-77
2023/01/12 09:36:43;;;;;;;8.53;3.30;;;6.60;99.90;;;;;;10445536;28;20536;-79
2023/01/12 09:47:31;;;;;;;12.30;6.13;;;6.80;99.90;;;;;;10445125;28;20404;-80
2023/01/12 09:52:41;;;;;;;1.70;1.60;;;6.80;99.90;;;;;;10433852;28;20059;-78
2023/01/12 09:57:58;;;;;;;3.30;3.10;;;6.80;99.90;;;;;;10444253;28;20137;-78
2023/01/12 10:03:11;;;;;;;3.87;3.07;;;7.00;99.90;;;;;;10444103;28;20060;-77
2023/01/12 10:08:55;;;;;;;1.50;1.30;;;7.20;99.90;;;;;;10444375;28;20110;-79
2023/01/12 10:14:28;;;;;;;3.27;2.93;;;7.20;99.90;;;;;;10439637;28;20128;-79
2023/01/12 10:19:44;;;;;;;1.13;1.03;;;7.10;99.90;;;;;;10443783;28;20044;-79
2023/01/12 10:24:45;;;;;;;8.48;3.13;;;7.20;99.90;;;;;;10443847;28;20435;-79
2023/01/12 10:29:47;;;;;;;0.30;0.30;;;7.50;99.90;;;;;;10443451;28;20060;-77
2023/01/12 10:34:51;;;;;;;7.63;2.43;;;7.60;99.90;;;;;;10443945;28;20060;-80
2023/01/12 10:39:51;;;;;;;3.63;1.63;;;7.40;99.90;;;;;;10442905;28;20082;-79
2023/01/12 10:45:23;;;;;;;0.17;0.17;;;7.20;99.90;;;;;;10443429;28;20554;-78
2023/01/12 10:50:35;;;;;;;1.90;1.80;;;7.10;99.90;;;;;;10442294;28;20041;-78
2023/01/12 10:55:39;;;;;;;3.87;2.93;;;7.00;99.90;;;;;;10442332;28;20048;-78
2023/01/12 11:00:47;;;;;;;0.10;0.10;;;6.90;99.90;;;;;;10442921;28;20056;-79
2023/01/12 11:05:47;;;;;;;2.43;0.73;;;6.80;99.90;;;;;;10442545;28;20447;-77
2023/01/12 11:10:48;;;;;;;1.90;1.03;;;6.70;99.90;;;;;;10442093;28;20111;-78
2023/01/12 11:16:06;;;;;;;0.93;0.93;;;6.90;99.90;;;;;;10441998;28;20442;-78
2023/01/12 11:21:13;;;;;;;0.30;0.30;;;7.10;99.90;;;;;;10442373;28;20111;-77
2023/01/12 11:26:22;;;;;;;0.40;0.40;;;7.40;99.90;;;;;;10441928;28;20075;-78
2023/01/12 11:31:30;;;;;;;0.00;0.00;;;7.70;99.90;;;;;;10443200;28;20075;-78
2023/01/12 11:36:40;;;;;;;4.23;3.03;;;7.80;99.90;;;;;;10442655;28;20114;-78
2023/01/12 11:47:23;;;;;;;1.10;1.10;;;7.50;99.90;;;;;;10442434;28;20044;-78
2023/01/12 11:52:25;;;;;;;0.57;0.57;;;7.10;99.90;;;;;;10441746;28;20029;-79
2023/01/12 11:57:48;;;;;;;1.60;1.50;;;7.00;99.90;;;;;;10441800;28;20029;-77
2023/01/12 12:03:24;;;;;;;4.03;2.50;;;7.30;99.90;;;;;;10430739;28;20513;-78
2023/01/12 12:08:41;;;;;;;0.00;0.00;;;7.60;99.90;;;;;;10442355;28;20078;-78
2023/01/12 12:14:07;;;;;;;1.63;1.53;;;8.00;99.90;;;;;;10429734;28;20043;-78
2023/01/12 12:19:32;;;;;;;0.03;0.03;;;8.20;99.90;;;;;;10441118;28;20392;-78
2023/01/12 12:24:54;;;;;;;0.30;0.30;;;8.30;99.90;;;;;;10446293;28;20140;-78
2023/01/12 12:30:10;;;;;;;0.37;0.37;;;8.30;99.90;;;;;;10436257;28;20025;-77
2023/01/12 12:35:36;;;;;;;0.10;0.10;;;8.30;99.90;;;;;;10448608;28;20029;-78
2023/01/12 12:46:20;;;;;;;0.00;0.00;;;8.50;99.90;;;;;;10436583;28;20040;-78
2023/01/12 12:51:23;;;;;;;0.10;0.10;;;8.60;99.90;;;;;;10447455;28;20024;-78
2023/01/12 12:56:25;;;;;;;0.77;0.77;;;8.50;99.90;;;;;;10447586;28;20032;-78
2023/01/12 13:01:28;;;;;;;0.10;0.10;;;8.50;99.90;;;;;;10424883;28;20444;-77
2023/01/12 13:06:43;;;;;;;0.83;0.67;;;8.50;99.90;;;;;;10443435;28;20037;-78
2023/01/12 13:11:52;;;;;;;0.20;0.20;;;8.50;99.90;;;;;;10446827;28;20094;-78
2023/01/12 13:16:58;;;;;;;0.57;0.57;;;8.40;99.90;;;;;;10447252;28;20040;-79
2023/01/12 13:22:41;;;;;;;1.02;0.80;;;8.40;99.90;;;;;;10444618;28;20037;-78
2023/01/12 13:28:00;;;;;;;0.57;0.57;;;8.40;99.90;;;;;;10445934;28;20052;-78
2023/01/12 13:33:13;;;;;;;1.23;1.13;;;8.40;99.90;;;;;;10443299;28;20033;-78
2023/01/12 13:38:51;;;;;;;3.07;2.77;;;8.40;99.90;;;;;;10445065;28;20045;-78
2023/01/12 13:43:56;;;;;;;0.23;0.23;;;8.30;99.90;;;;;;10445244;28;20036;-78
2023/01/12 13:48:57;;;;;;;1.00;1.00;;;8.30;99.90;;;;;;10444639;28;20033;-78
2023/01/12 13:54:04;;;;;;;1.60;1.50;;;8.30;99.90;;;;;;10444693;28;20493;-78
2023/01/12 13:59:13;;;;;;;13.47;5.63;;;8.20;99.90;;;;;;10444090;28;20033;-78
2023/01/12 14:04:14;;;;;;;3.80;3.43;;;8.10;99.90;;;;;;10444534;28;20079;-78
2023/01/12 14:09:28;;;;;;;2.60;1.50;;;8.00;99.90;;;;;;10444141;28;20112;-80
2023/01/12 14:19:56;;;;;;;0.30;0.30;;;7.50;99.90;;;;;;10430917;28;20045;-79
2023/01/12 14:25:20;;;;;;;5.03;2.00;;;7.30;99.90;;;;;;10443714;28;20061;-80
2023/01/12 14:30:23;;;;;;;3.53;1.90;;;7.20;99.90;;;;;;10441580;28;20652;-78
2023/01/12 14:35:25;;;;;;;4.93;1.53;;;7.00;99.90;;;;;;10429131;28;20029;-78
2023/01/12 14:40:31;;;;;;;11.60;3.90;;;6.90;99.90;;;;;;10442364;28;20492;-78
2023/01/12 14:51:28;;;;;;;108.83;37.93;;;6.80;99.90;;;;;;10439438;28;20658;-77
2023/01/12 14:56:38;;;;;;;123.27;41.87;;;6.60;99.90;;;;;;10442828;28;20029;-80
2023/01/12 15:01:40;;;;;;;66.53;16.83;;;6.60;99.90;;;;;;10441890;28;20132;-77
2023/01/12 15:06:42;;;;;;;64.73;15.57;;;6.50;99.90;;;;;;10442564;28;20071;-76
2023/01/12 15:11:43;;;;;;;52.93;16.47;;;6.40;99.90;;;;;;10441708;28;20068;-77
2023/01/12 15:27:27;;;;;;;53.30;19.43;;;6.30;99.90;;;;;;10441956;28;20060;-78
2023/01/12 15:32:35;;;;;;;64.87;26.13;;;6.20;99.90;;;;;;10441666;28;20024;-77
2023/01/12 15:37:36;;;;;;;48.37;21.00;;;6.10;99.90;;;;;;10442096;28;20028;-78
2023/01/12 15:42:36;;;;;;;44.33;18.07;;;6.00;99.90;;;;;;10441449;28;20041;-77
2023/01/12 15:47:37;;;;;;;48.43;22.57;;;6.00;99.90;;;;;;10440793;28;20037;-77
2023/01/12 15:52:37;;;;;;;53.13;24.77;;;5.90;99.90;;;;;;10440898;28;20029;-77
2023/01/12 15:57:38;;;;;;;46.03;19.47;;;5.80;99.90;;;;;;10443384;28;20029;-78
2023/01/12 16:02:40;;;;;;;34.83;15.10;;;5.70;99.90;;;;;;10448163;28;20557;-78
2023/01/12 16:07:41;;;;;;;42.53;18.87;;;5.60;99.90;;;;;;10449164;28;20033;-78
2023/01/12 16:12:43;;;;;;;36.50;17.70;;;5.60;99.90;;;;;;10449003;28;20029;-77
2023/01/12 16:17:43;;;;;;;47.90;20.03;;;5.60;99.90;;;;;;10448831;28;20027;-78
2023/01/12 16:22:45;;;;;;;52.63;22.50;;;5.50;99.90;;;;;;10448977;28;20049;-77
2023/01/12 16:27:46;;;;;;;37.07;15.50;;;5.40;99.90;;;;;;10449295;28;20404;-76
2023/01/12 16:32:46;;;;;;;34.40;15.20;;;5.40;99.90;;;;;;10448511;28;20040;-77
2023/01/12 16:37:51;;;;;;;39.53;16.67;;;5.40;99.90;;;;;;10448058;28;20032;-76
2023/01/12 16:42:52;;;;;;;48.27;17.83;;;5.40;99.90;;;;;;10428268;28;20770;-76
2023/01/12 16:47:56;;;;;;;43.53;20.27;;;5.30;99.90;;;;;;10441555;28;20029;-76
2023/01/12 16:52:57;;;;;;;44.70;19.70;;;5.30;99.90;;;;;;10425553;28;20033;-77
2023/01/12 16:57:57;;;;;;;57.83;29.03;;;5.30;99.90;;;;;;10446960;28;20036;-76
2023/01/12 17:02:59;;;;;;;52.40;23.23;;;5.30;99.90;;;;;;10447372;28;20121;-77
2023/01/12 17:07:59;;;;;;;62.10;27.97;;;5.30;99.90;;;;;;10446274;28;20041;-76
2023/01/12 17:13:00;;;;;;;55.73;27.07;;;5.30;99.90;;;;;;10445913;28;20040;-77
2023/01/12 17:18:01;;;;;;;48.93;22.40;;;5.20;99.90;;;;;;10446506;28;20439;-76
2023/01/12 17:23:01;;;;;;;64.53;32.70;;;5.20;99.90;;;;;;10443219;28;20047;-76
2023/01/12 17:28:02;;;;;;;56.07;23.60;;;5.20;99.90;;;;;;10444051;28;20040;-76
2023/01/12 17:33:02;;;;;;;56.83;29.37;;;5.10;99.90;;;;;;10446030;28;20043;-76
2023/01/12 17:38:03;;;;;;;54.93;28.10;;;5.10;99.90;;;;;;10446133;28;20040;-76
2023/01/12 17:43:05;;;;;;;51.17;26.20;;;5.10;99.90;;;;;;10444761;28;20036;-76
2023/01/12 17:48:05;;;;;;;42.90;21.60;;;5.10;99.90;;;;;;10443941;28;20033;-76
2023/01/12 17:53:08;;;;;;;49.63;22.80;;;5.20;99.90;;;;;;10444719;28;20465;-76
2023/01/12 17:58:08;;;;;;;59.77;25.30;;;5.20;99.90;;;;;;10445207;28;20033;-76
2023/01/12 18:03:09;;;;;;;297.60;174.90;;;5.20;99.90;;;;;;10443978;28;20040;-76
2023/01/12 18:08:09;;;;;;;120.80;49.13;;;5.20;99.90;;;;;;10443890;28;20064;-77
2023/01/12 18:13:12;;;;;;;98.20;41.30;;;5.20;99.90;;;;;;10443553;28;20751;-77
2023/01/12 18:18:12;;;;;;;69.90;31.40;;;5.20;99.90;;;;;;10444144;28;20040;-76
2023/01/12 18:23:13;;;;;;;60.83;27.73;;;5.10;99.90;;;;;;10440147;28;20099;-75
2023/01/12 18:28:14;;;;;;;117.83;49.47;;;5.00;99.90;;;;;;10442541;28;20179;-77
2023/01/12 18:33:14;;;;;;;111.40;64.20;;;5.00;99.90;;;;;;10442160;28;20032;-78
2023/01/12 18:38:15;;;;;;;88.67;40.33;;;4.80;99.90;;;;;;10442010;28;20396;-77
2023/01/12 18:43:15;;;;;;;100.23;42.57;;;4.80;99.90;;;;;;10440550;28;20036;-76
2023/01/12 18:48:23;;;;;;;116.83;50.93;;;4.70;99.90;;;;;;10439505;28;20480;-77
2023/01/12 18:53:30;;;;;;;82.83;48.50;;;4.70;99.90;;;;;;10441412;28;20080;-76
2023/01/12 18:58:32;;;;;;;61.93;28.53;;;4.60;99.90;;;;;;10441025;28;20040;-77
2023/01/12 19:03:36;;;;;;;93.00;42.50;;;4.60;99.90;;;;;;10436517;28;20037;-78
2023/01/12 19:19:17;;;;;;;66.43;32.23;;;4.60;99.90;;;;;;10436145;28;20251;-78
2023/01/12 19:29:37;;;;;;;56.33;29.50;;;4.50;99.90;;;;;;10431931;28;20033;-78
2023/01/12 19:34:37;;;;;;;49.23;25.30;;;4.50;99.90;;;;;;10448219;28;20025;-79
2023/01/12 19:44:39;;;;;;;71.60;30.37;;;4.40;99.90;;;;;;10448587;28;20040;-79
2023/01/12 19:49:39;;;;;;;70.90;31.77;;;4.40;99.90;;;;;;10442996;28;20084;-79
2023/01/12 19:54:40;;;;;;;48.73;24.73;;;4.40;99.90;;;;;;10444941;28;20037;-78
2023/01/12 19:59:41;;;;;;;55.17;25.63;;;4.40;99.90;;;;;;10447871;28;20045;-78
2023/01/12 20:04:41;;;;;;;55.13;26.57;;;4.40;99.90;;;;;;10448257;28;20033;-79
2023/01/12 20:09:42;;;;;;;53.93;26.87;;;4.40;99.90;;;;;;10448009;28;20025;-77
2023/01/12 20:14:42;;;;;;;51.80;26.70;;;4.40;99.90;;;;;;10446691;28;20136;-77
2023/01/12 20:19:43;;;;;;;55.93;26.70;;;4.40;99.90;;;;;;10446608;28;20068;-77
2023/01/12 20:24:45;;;;;;;55.23;25.67;;;4.30;99.90;;;;;;10443749;28;20393;-77
2023/01/12 20:29:45;;;;;;;50.87;25.30;;;4.30;99.90;;;;;;10430262;28;20059;-79
2023/01/12 20:34:47;;;;;;;53.07;24.27;;;4.40;99.90;;;;;;10446888;28;20056;-78
2023/01/12 20:39:51;;;;;;;54.10;27.83;;;4.40;99.90;;;;;;10447548;28;20051;-80
2023/01/12 20:44:52;;;;;;;54.97;26.17;;;4.40;99.90;;;;;;10433618;28;20033;-77
2023/01/12 20:49:53;;;;;;;43.80;23.40;;;4.30;99.90;;;;;;10446494;28;20040;-77
2023/01/12 20:54:53;;;;;;;46.77;23.13;;;4.40;99.90;;;;;;10446618;28;20033;-80
2023/01/12 20:59:54;;;;;;;54.47;27.20;;;4.30;99.90;;;;;;10446133;28;20052;-78
2023/01/12 21:04:55;;;;;;;59.07;30.93;;;4.30;99.90;;;;;;10438135;28;20039;-77
2023/01/12 21:09:55;;;;;;;59.23;29.57;;;4.40;99.90;;;;;;10446406;28;20074;-78
2023/01/12 21:14:56;;;;;;;41.73;21.63;;;4.40;99.90;;;;;;10446885;28;20119;-77
2023/01/12 21:19:56;;;;;;;40.43;19.80;;;4.50;99.90;;;;;;10445904;28;20099;-80
2023/01/12 21:24:57;;;;;;;38.10;18.00;;;4.60;99.90;;;;;;10445163;28;20649;-78
2023/01/12 21:29:57;;;;;;;39.37;17.90;;;4.60;99.90;;;;;;10446055;28;20029;-79
2023/01/12 21:34:58;;;;;;;33.37;17.53;;;4.70;99.90;;;;;;10445009;28;20037;-78
2023/01/12 21:39:58;;;;;;;44.17;21.00;;;4.70;99.90;;;;;;10444646;28;20558;-80
2023/01/12 21:44:59;;;;;;;30.07;14.77;;;4.70;99.90;;;;;;10445046;28;20044;-79
2023/01/12 21:49:59;;;;;;;27.17;14.47;;;4.80;99.90;;;;;;10444722;28;20029;-77
2023/01/12 21:55:00;;;;;;;27.33;14.37;;;5.00;99.90;;;;;;10443562;28;20041;-78
2023/01/12 22:00:00;;;;;;;26.30;14.43;;;5.00;99.90;;;;;;10444845;28;20068;-78
2023/01/12 22:05:01;;;;;;;33.33;14.23;;;5.10;99.90;;;;;;10444093;28;20029;-80
2023/01/12 22:15:22;;;;;;;24.97;12.40;;;5.20;99.90;;;;;;10442836;28;20041;-78
2023/01/12 22:20:24;;;;;;;21.93;11.07;;;5.20;99.90;;;;;;10443602;28;20040;-79
2023/01/12 22:25:25;;;;;;;32.50;16.10;;;5.30;99.90;;;;;;10443554;28;20059;-79
2023/01/12 22:30:26;;;;;;;32.80;16.97;;;5.40;99.90;;;;;;10442900;28;20075;-77
2023/01/12 22:35:27;;;;;;;32.40;15.57;;;5.40;99.90;;;;;;10443091;28;20762;-80
2023/01/12 22:40:27;;;;;;;32.30;16.37;;;5.40;99.90;;;;;;10443524;28;20053;-77
2023/01/12 22:45:28;;;;;;;27.77;15.50;;;5.50;99.90;;;;;;10442528;28;20448;-77
2023/01/12 22:50:29;;;;;;;21.60;11.50;;;5.50;99.90;;;;;;10442749;28;20035;-80
2023/01/12 22:55:29;;;;;;;23.57;12.90;;;5.60;99.90;;;;;;10442046;28;20041;-78
2023/01/12 23:00:30;;;;;;;23.03;10.70;;;5.60;99.90;;;;;;10423806;28;20039;-77
2023/01/12 23:05:36;;;;;;;16.30;7.33;;;5.70;99.90;;;;;;10441603;28;20032;-79
2023/01/12 23:10:37;;;;;;;17.33;7.93;;;5.70;99.90;;;;;;10441901;28;20025;-80
2023/01/12 23:15:39;;;;;;;21.27;9.90;;;5.90;99.90;;;;;;10441234;28;20021;-79
2023/01/12 23:20:41;;;;;;;17.50;8.67;;;6.00;99.90;;;;;;10424145;28;20128;-79
2023/01/12 23:25:43;;;;;;;15.17;8.73;;;6.10;99.90;;;;;;10441150;28;20094;-79
2023/01/12 23:30:44;;;;;;;15.23;8.00;;;6.10;99.90;;;;;;10441447;28;20029;-78
2023/01/12 23:35:44;;;;;;;15.30;7.37;;;6.10;99.90;;;;;;10441198;28;20521;-77
2023/01/12 23:40:45;;;;;;;13.53;7.03;;;6.10;99.90;;;;;;10440825;28;20276;-79
2023/01/12 23:45:45;;;;;;;16.93;7.27;;;6.10;99.90;;;;;;10441310;28;20044;-77
2023/01/12 23:50:46;;;;;;;14.17;5.97;;;6.10;99.90;;;;;;10440968;28;20064;-77
2023/01/12 23:55:46;;;;;;;11.03;5.60;;;6.10;99.90;;;;;;10441187;28;20040;-78
